Time;durP1;ratioP1;P1;durP2;ratioP2;P2;SDS_P1;SDS_P2;PMS_P1;PMS_P2;Temp;Humidity;BMP_temperature;BMP_pressure;BME280_temperature;BME280_humidity;BME280_pressure;Samples;Min_cycle;Max_cycle;Signal;HPM_P1;HPM_P2
2022/09/05 00:00:00;;;;;;;5.23;2.20;;;23.30;66.30;;;;;;5001383;28;20030;-59
2022/09/05 00:02:43;;;;;;;4.72;2.17;;;23.30;66.20;;;;;;4983052;28;20292;-59
2022/09/05 00:05:31;;;;;;;7.03;2.22;;;23.30;66.10;;;;;;4983902;28;20099;-59
2022/09/05 00:08:22;;;;;;;5.78;2.10;;;23.30;66.30;;;;;;4984992;28;20100;-59
2022/09/05 00:11:07;;;;;;;5.50;2.13;;;23.30;66.20;;;;;;4984778;28;21570;-59
2022/09/05 00:13:44;;;;;;;4.43;1.90;;;23.30;66.20;;;;;;4981537;28;20168;-59
2022/09/05 00:16:36;;;;;;;4.32;2.00;;;23.30;66.20;;;;;;4995205;28;20026;-59
2022/09/05 00:19:10;;;;;;;5.47;2.10;;;23.30;66.10;;;;;;5007473;28;20109;-59
2022/09/05 00:21:51;;;;;;;3.90;2.03;;;23.30;66.10;;;;;;4984301;28;20145;-59
2022/09/05 00:24:35;;;;;;;4.63;1.92;;;23.30;66.20;;;;;;4982577;28;20041;-59
2022/09/05 00:27:19;;;;;;;6.80;2.08;;;23.30;66.10;;;;;;5002226;28;20030;-59
2022/09/05 00:30:13;;;;;;;5.55;2.38;;;23.30;66.30;;;;;;5001461;28;20034;-59
2022/09/05 00:32:44;;;;;;;4.85;2.10;;;23.30;66.10;;;;;;4996648;28;20027;-59
2022/09/05 00:35:22;;;;;;;4.60;1.92;;;23.30;66.10;;;;;;4982939;28;20135;-59
2022/09/05 00:37:48;;;;;;;6.43;2.38;;;23.30;66.10;;;;;;4982762;28;20044;-59
2022/09/05 00:40:19;;;;;;;5.43;2.28;;;23.20;66.10;;;;;;5001280;28;20023;-58
2022/09/05 00:42:47;;;;;;;6.00;2.40;;;23.20;66.00;;;;;;4988084;28;20092;-59
2022/09/05 00:45:16;;;;;;;5.57;2.10;;;23.20;66.00;;;;;;5004602;28;20453;-59
2022/09/05 00:47:47;;;;;;;5.75;2.20;;;23.20;66.00;;;;;;5002420;28;20081;-59
2022/09/05 00:50:40;;;;;;;3.97;1.90;;;23.20;65.90;;;;;;4984144;28;20077;-59
2022/09/05 00:53:40;;;;;;;5.65;1.90;;;23.20;66.00;;;;;;4985105;28;20061;-59
2022/09/05 00:56:30;;;;;;;6.32;2.15;;;23.20;65.90;;;;;;5006076;28;20836;-59
2022/09/05 00:59:23;;;;;;;4.47;2.00;;;23.20;65.90;;;;;;5007132;28;20070;-59
2022/09/05 01:02:02;;;;;;;5.00;2.13;;;23.20;65.90;;;;;;5006409;28;20585;-59
2022/09/05 01:04:36;;;;;;;4.70;1.80;;;23.20;65.90;;;;;;4976365;28;20030;-59
2022/09/05 01:07:08;;;;;;;3.30;1.75;;;23.20;65.90;;;;;;5005775;28;20042;-59
2022/09/05 01:10:01;;;;;;;4.97;1.95;;;23.20;65.90;;;;;;5002786;28;20048;-59
2022/09/05 01:12:49;;;;;;;5.85;2.05;;;23.20;65.90;;;;;;4987610;28;20030;-59
2022/09/05 01:16:07;;;;;;;4.47;1.80;;;23.20;65.90;;;;;;4991880;28;20085;-59
2022/09/05 01:19:04;;;;;;;5.63;2.15;;;23.10;66.60;;;;;;4945761;29;20046;-59
2022/09/05 01:21:48;;;;;;;5.03;1.90;;;23.10;65.90;;;;;;4913513;29;20646;-59
2022/09/05 01:24:35;;;;;;;3.60;1.70;;;23.20;65.90;;;;;;4929811;29;20032;-59
2022/09/05 01:27:25;;;;;;;4.30;2.10;;;23.10;65.80;;;;;;4929100;29;20797;-59
2022/09/05 01:29:57;;;;;;;5.05;1.90;;;23.10;65.90;;;;;;4925632;29;20047;-59
2022/09/05 01:32:38;;;;;;;4.45;1.75;;;23.10;65.90;;;;;;4923875;29;20114;-59
2022/09/05 01:35:23;;;;;;;3.95;1.98;;;23.10;65.80;;;;;;4888140;29;20036;-59
2022/09/05 01:37:57;;;;;;;3.72;1.70;;;23.10;65.80;;;;;;4890487;29;20127;-59
2022/09/05 01:40:29;;;;;;;5.25;1.77;;;23.10;65.90;;;;;;4891953;29;20030;-59
2022/09/05 01:42:54;;;;;;;3.92;1.75;;;23.10;65.90;;;;;;4861491;29;20051;-59
2022/09/05 01:45:29;;;;;;;4.07;1.70;;;23.10;66.00;;;;;;4891072;29;20387;-59
2022/09/05 01:48:06;;;;;;;4.35;2.00;;;23.10;65.90;;;;;;4875505;29;20053;-59
2022/09/05 01:50:51;;;;;;;3.22;1.70;;;23.10;66.00;;;;;;4890648;29;20039;-59
2022/09/05 01:53:38;;;;;;;4.70;1.80;;;23.10;65.90;;;;;;4876880;29;20032;-59
2022/09/05 01:56:27;;;;;;;5.75;1.83;;;23.00;65.80;;;;;;4902538;29;20033;-59
2022/09/05 01:59:27;;;;;;;4.47;1.80;;;23.10;65.90;;;;;;4976556;28;20042;-59
2022/09/05 02:02:11;;;;;;;4.95;1.90;;;23.10;65.90;;;;;;4985197;28;20050;-59
2022/09/05 02:04:55;;;;;;;6.28;2.00;;;23.00;65.90;;;;;;4985558;28;20029;-59
2022/09/05 02:07:23;;;;;;;3.35;1.77;;;23.00;65.90;;;;;;4986145;28;20624;-59
2022/09/05 02:10:21;;;;;;;5.05;1.88;;;23.00;65.90;;;;;;5001100;28;20066;-59
2022/09/05 02:12:51;;;;;;;5.25;1.80;;;23.00;65.90;;;;;;4961924;28;20475;-59
2022/09/05 02:15:24;;;;;;;4.60;1.80;;;23.00;65.90;;;;;;4932777;28;20031;-59
2022/09/05 02:17:58;;;;;;;5.05;1.83;;;23.00;65.90;;;;;;4946586;28;20043;-59
2022/09/05 02:20:56;;;;;;;4.45;1.75;;;23.00;65.90;;;;;;4961094;28;20106;-59
2022/09/05 02:23:54;;;;;;;3.75;1.90;;;23.00;66.90;;;;;;4933186;28;20047;-59
2022/09/05 02:26:26;;;;;;;4.75;1.65;;;23.00;65.90;;;;;;4949834;28;20113;-59
2022/09/05 02:28:52;;;;;;;4.75;1.88;;;23.00;65.90;;;;;;4962261;28;20057;-59
2022/09/05 02:31:30;;;;;;;4.10;1.73;;;23.00;66.00;;;;;;4959087;28;20535;-59
2022/09/05 02:34:00;;;;;;;4.30;1.80;;;23.00;65.90;;;;;;4962941;28;20582;-59
2022/09/05 02:36:31;;;;;;;3.47;1.50;;;23.00;65.90;;;;;;4941073;28;20050;-59
2022/09/05 02:39:31;;;;;;;5.05;1.90;;;23.00;65.90;;;;;;4950763;28;20027;-59
2022/09/05 02:42:07;;;;;;;4.15;1.70;;;23.00;65.90;;;;;;4963144;28;20027;-59
2022/09/05 02:44:50;;;;;;;6.07;1.70;;;22.90;65.90;;;;;;4962520;28;20535;-59
2022/09/05 02:47:32;;;;;;;4.07;1.85;;;22.90;65.80;;;;;;4948246;28;20172;-58
2022/09/05 02:50:13;;;;;;;5.60;1.90;;;22.90;65.80;;;;;;4987897;28;20129;-59
2022/09/05 02:52:39;;;;;;;4.40;1.90;;;22.90;65.90;;;;;;4985939;28;20513;-59
2022/09/05 02:55:30;;;;;;;4.70;1.77;;;22.90;65.80;;;;;;4983154;28;20030;-59
2022/09/05 02:58:05;;;;;;;3.83;1.60;;;22.90;66.90;;;;;;4998814;28;20025;-59
2022/09/05 03:00:35;;;;;;;;;;;22.90;65.90;;;;;;4983976;28;20069;-59
2022/09/05 03:03:01;;;;;;;5.18;1.67;;;22.90;65.80;;;;;;5002223;28;20413;-59
2022/09/05 03:05:53;;;;;;;4.63;1.63;;;22.90;65.90;;;;;;4984775;28;20054;-58
2022/09/05 03:08:30;;;;;;;4.68;2.05;;;22.90;65.80;;;;;;4986195;28;20045;-59
2022/09/05 03:11:33;;;;;;;3.50;1.75;;;22.80;65.90;;;;;;4999550;28;20141;-58
2022/09/05 03:14:01;;;;;;;5.00;2.03;;;22.90;65.80;;;;;;4984911;28;20030;-59
2022/09/05 03:16:49;;;;;;;4.95;1.88;;;22.90;65.80;;;;;;4984508;28;20030;-59
2022/09/05 03:19:52;;;;;;;3.63;1.60;;;22.90;65.80;;;;;;4984880;28;20483;-58
2022/09/05 03:22:46;;;;;;;3.78;1.63;;;22.80;65.80;;;;;;4981237;28;20046;-59
2022/09/05 03:25:21;;;;;;;5.65;1.92;;;22.80;65.90;;;;;;4980878;28;20038;-59
2022/09/05 03:28:05;;;;;;;6.22;1.92;;;22.80;65.80;;;;;;4984526;28;20585;-59
2022/09/05 03:30:52;;;;;;;3.30;1.67;;;22.80;65.80;;;;;;4982918;28;20534;-59
2022/09/05 03:33:55;;;;;;;3.78;1.70;;;22.80;65.80;;;;;;4984273;28;20038;-59
2022/09/05 03:36:41;;;;;;;3.90;1.67;;;22.80;65.80;;;;;;4984750;28;20069;-59
2022/09/05 03:39:34;;;;;;;5.05;1.75;;;22.80;65.90;;;;;;4987865;28;20053;-59
2022/09/05 03:42:04;;;;;;;5.00;1.83;;;22.80;65.80;;;;;;4979338;28;20541;-59
2022/09/05 03:44:36;;;;;;;4.15;1.60;;;22.80;65.80;;;;;;5008785;28;20387;-59
2022/09/05 03:47:13;;;;;;;4.43;1.88;;;22.80;65.80;;;;;;4998837;28;20039;-59
2022/09/05 03:50:00;;;;;;;4.88;1.52;;;22.80;65.80;;;;;;5001028;28;20023;-59
2022/09/05 03:52:51;;;;;;;4.15;1.70;;;22.80;65.80;;;;;;4998065;28;20038;-59
2022/09/05 03:55:23;;;;;;;5.35;1.80;;;22.80;65.80;;;;;;4982701;28;20521;-59
2022/09/05 03:58:16;;;;;;;3.25;1.77;;;22.80;65.80;;;;;;4997306;28;20428;-59
2022/09/05 04:00:46;;;;;;;5.38;1.98;;;22.80;65.80;;;;;;4982104;28;20056;-59
2022/09/05 04:03:23;;;;;;;3.17;1.70;;;22.70;65.70;;;;;;4999887;28;20126;-59
2022/09/05 04:05:53;;;;;;;3.10;1.60;;;22.70;65.70;;;;;;4981210;28;20108;-59
2022/09/05 04:08:18;;;;;;;3.80;1.77;;;22.70;65.70;;;;;;4985204;28;20054;-59
2022/09/05 04:11:03;;;;;;;3.88;1.50;;;22.70;65.70;;;;;;4984597;28;20029;-59
2022/09/05 04:13:32;;;;;;;4.97;2.00;;;22.70;65.70;;;;;;4978975;28;20507;-59
2022/09/05 04:16:20;;;;;;;4.70;1.70;;;22.70;65.70;;;;;;4998860;28;20446;-59
2022/09/05 04:18:55;;;;;;;4.10;1.70;;;22.70;65.70;;;;;;4985743;28;20042;-59
2022/09/05 04:21:30;;;;;;;4.28;1.77;;;22.70;65.70;;;;;;4999486;28;20056;-59
2022/09/05 04:24:07;;;;;;;5.22;1.80;;;22.70;65.70;;;;;;4976549;28;20081;-59
2022/09/05 04:27:07;;;;;;;3.90;1.50;;;22.70;65.70;;;;;;4998953;28;20062;-59
2022/09/05 04:30:00;;;;;;;4.57;1.80;;;22.70;65.70;;;;;;4997748;28;20038;-59
2022/09/05 04:32:46;;;;;;;4.43;1.52;;;22.70;65.70;;;;;;4983705;28;20085;-58
2022/09/05 04:35:24;;;;;;;5.28;1.70;;;22.60;65.60;;;;;;5010124;28;20026;-58
2022/09/05 04:37:50;;;;;;;3.67;1.50;;;22.60;66.70;;;;;;4985101;28;20026;-58
2022/09/05 04:40:37;;;;;;;4.55;1.63;;;22.60;65.60;;;;;;4982497;28;20440;-58
2022/09/05 04:43:24;;;;;;;2.92;1.30;;;22.70;65.70;;;;;;4984506;28;20453;-58
2022/09/05 04:46:10;;;;;;;4.97;1.60;;;22.60;65.60;;;;;;4999567;28;20117;-58
2022/09/05 04:48:41;;;;;;;4.05;1.60;;;22.60;65.60;;;;;;4981262;28;20038;-59
2022/09/05 04:51:09;;;;;;;4.50;1.73;;;22.60;65.70;;;;;;4982680;28;20573;-58
2022/09/05 04:54:06;;;;;;;5.78;1.60;;;22.70;65.70;;;;;;4983119;28;20065;-58
2022/09/05 04:56:34;;;;;;;4.47;1.45;;;22.60;65.60;;;;;;4994397;28;20660;-58
2022/09/05 04:59:25;;;;;;;4.72;1.70;;;22.60;65.60;;;;;;4999638;28;20101;-58
2022/09/05 05:01:53;;;;;;;3.97;1.83;;;22.60;65.60;;;;;;4980177;28;20041;-58
2022/09/05 05:04:21;;;;;;;3.33;1.70;;;22.60;65.60;;;;;;4982170;28;20026;-58
2022/09/05 05:07:04;;;;;;;4.85;1.80;;;22.60;65.60;;;;;;4998579;28;20031;-58
2022/09/05 05:09:38;;;;;;;4.43;1.55;;;22.60;65.60;;;;;;4995688;28;20037;-58
2022/09/05 05:12:29;;;;;;;4.23;1.53;;;22.60;65.60;;;;;;4999139;28;20018;-58
2022/09/05 05:15:03;;;;;;;5.07;1.58;;;22.60;65.60;;;;;;4988089;28;20077;-58
2022/09/05 05:17:34;;;;;;;6.97;1.90;;;22.60;65.70;;;;;;4987191;28;20042;-59
2022/09/05 05:20:17;;;;;;;5.30;1.70;;;22.60;65.80;;;;;;4985586;28;20458;-59
2022/09/05 05:22:54;;;;;;;6.32;1.80;;;22.60;65.90;;;;;;5004644;28;20053;-58
2022/09/05 05:25:21;;;;;;;4.68;1.80;;;22.60;66.00;;;;;;5001853;28;20041;-58
2022/09/05 05:27:58;;;;;;;4.13;1.52;;;22.60;66.10;;;;;;4966229;28;20049;-58
2022/09/05 05:30:25;;;;;;;6.63;1.70;;;22.60;66.20;;;;;;5003562;28;20563;-58
2022/09/05 05:32:51;;;;;;;5.53;1.83;;;22.60;66.20;;;;;;4985230;28;20072;-58
2022/09/05 05:35:35;;;;;;;7.82;1.95;;;22.70;66.30;;;;;;4980234;28;20157;-59
2022/09/05 05:38:21;;;;;;;8.52;1.63;;;22.60;66.50;;;;;;4987409;28;20519;-58
2022/09/05 05:40:51;;;;;;;6.97;1.83;;;22.60;66.30;;;;;;5000703;28;20092;-59
2022/09/05 05:43:33;;;;;;;8.50;1.80;;;22.60;66.40;;;;;;5002461;28;20023;-60
2022/09/05 05:45:59;;;;;;;6.03;1.80;;;22.60;66.50;;;;;;5012399;28;20026;-60
2022/09/05 05:48:43;;;;;;;6.50;1.80;;;22.60;66.30;;;;;;5003961;28;20300;-60
2022/09/05 05:51:12;;;;;;;5.80;2.03;;;22.60;66.40;;;;;;4969150;28;20022;-60
2022/09/05 05:53:53;;;;;;;6.30;1.83;;;22.60;66.30;;;;;;4985357;28;20046;-60
2022/09/05 05:56:59;;;;;;;6.50;1.83;;;22.60;66.40;;;;;;4983449;28;20463;-60
2022/09/05 05:59:53;;;;;;;6.30;1.70;;;22.60;66.30;;;;;;4993196;28;20579;-60
2022/09/05 06:02:44;;;;;;;4.95;1.55;;;22.60;66.30;;;;;;4983538;28;20506;-60
2022/09/05 06:05:23;;;;;;;6.68;1.85;;;22.50;66.30;;;;;;5002246;28;20620;-60
2022/09/05 06:08:08;;;;;;;6.95;1.77;;;22.50;66.20;;;;;;5002588;28;20039;-60
2022/09/05 06:10:57;;;;;;;5.73;1.70;;;22.60;66.30;;;;;;4985924;28;20638;-60
2022/09/05 06:13:52;;;;;;;8.80;1.85;;;22.50;66.30;;;;;;4983688;28;20278;-59
2022/09/05 06:16:37;;;;;;;;;;;22.50;66.30;;;;;;4985932;28;20043;-59
2022/09/05 06:19:11;;;;;;;7.70;1.77;;;22.50;66.20;;;;;;4983739;28;19921;-60
2022/09/05 06:22:04;;;;;;;6.78;1.48;;;22.50;66.30;;;;;;4984115;28;20050;-60
2022/09/05 06:24:36;;;;;;;6.53;1.90;;;22.50;66.30;;;;;;4996842;28;20027;-59
2022/09/05 06:27:39;;;;;;;4.30;1.70;;;22.50;66.30;;;;;;4982812;28;20043;-60
2022/09/05 06:30:07;;;;;;;8.52;1.90;;;22.50;66.20;;;;;;4985319;28;20459;-60
2022/09/05 06:32:44;;;;;;;4.93;1.60;;;22.50;66.20;;;;;;5000365;28;20034;-60
2022/09/05 06:35:28;;;;;;;5.63;1.80;;;22.40;66.20;;;;;;5000356;28;20061;-60
2022/09/05 06:38:03;;;;;;;5.37;1.70;;;22.50;66.30;;;;;;4986916;28;20044;-60
2022/09/05 06:40:49;;;;;;;4.28;1.50;;;22.50;66.20;;;;;;4983835;28;20030;-60
2022/09/05 06:43:34;;;;;;;5.57;1.75;;;22.50;66.20;;;;;;4984566;28;20026;-60
2022/09/05 06:46:06;;;;;;;6.07;1.73;;;22.50;66.30;;;;;;4983909;28;20080;-60
2022/09/05 06:48:51;;;;;;;4.68;1.60;;;22.50;66.20;;;;;;4984609;28;20073;-60
2022/09/05 06:51:41;;;;;;;3.72;1.70;;;22.40;66.20;;;;;;5008794;28;20039;-60
2022/09/05 06:54:07;;;;;;;7.40;1.83;;;22.40;66.20;;;;;;4984987;28;20030;-60
2022/09/05 06:56:40;;;;;;;5.57;1.70;;;22.40;66.10;;;;;;4983886;28;20487;-60
2022/09/05 06:59:33;;;;;;;8.00;1.77;;;22.50;66.20;;;;;;4984275;28;20029;-60
2022/09/05 07:02:07;;;;;;;5.22;1.50;;;22.40;66.10;;;;;;4995650;28;20021;-60
2022/09/05 07:04:42;;;;;;;5.03;1.55;;;22.40;66.10;;;;;;4983087;28;20600;-59
2022/09/05 07:07:21;;;;;;;6.25;1.80;;;22.40;66.20;;;;;;5007661;28;20074;-58
2022/09/05 07:09:58;;;;;;;6.65;1.70;;;22.50;66.10;;;;;;5010305;28;20018;-59
2022/09/05 07:12:52;;;;;;;5.47;1.60;;;22.50;66.30;;;;;;4985183;28;20045;-60
2022/09/05 07:15:40;;;;;;;5.90;1.67;;;22.50;66.20;;;;;;4995035;28;20047;-60
2022/09/05 07:18:18;;;;;;;6.30;1.58;;;22.50;66.30;;;;;;4996861;28;20061;-60
2022/09/05 07:20:56;;;;;;;5.85;1.45;;;22.50;66.30;;;;;;5004659;28;20073;-59
2022/09/05 07:23:32;;;;;;;5.25;1.58;;;22.50;66.30;;;;;;4984381;28;20128;-59
2022/09/05 07:25:57;;;;;;;6.18;1.70;;;22.50;66.20;;;;;;5001876;28;20043;-60
2022/09/05 07:28:23;;;;;;;5.57;1.88;;;22.40;66.20;;;;;;5000994;28;20130;-59
2022/09/05 07:30:56;;;;;;;5.00;1.67;;;22.50;66.30;;;;;;4998116;28;20026;-59
2022/09/05 07:33:25;;;;;;;6.57;1.60;;;22.50;66.30;;;;;;4986702;28;20026;-59
2022/09/05 07:35:50;;;;;;;4.40;1.55;;;22.40;66.20;;;;;;5001866;28;20033;-59
2022/09/05 07:38:29;;;;;;;7.15;1.30;;;22.50;66.30;;;;;;5002466;28;20022;-60
2022/09/05 07:40:59;;;;;;;4.40;1.50;;;22.50;66.30;;;;;;4982242;28;20065;-59
2022/09/05 07:43:46;;;;;;;6.93;1.70;;;22.40;66.40;;;;;;4966653;28;20084;-60
2022/09/05 07:46:12;;;;;;;6.22;1.45;;;22.50;66.40;;;;;;4982572;28;20058;-59
2022/09/05 07:48:41;;;;;;;5.28;1.60;;;22.50;66.30;;;;;;4996649;28;20019;-59
2022/09/05 07:51:07;;;;;;;5.40;1.50;;;22.50;66.50;;;;;;4998711;28;20045;-59
2022/09/05 07:53:35;;;;;;;3.75;1.40;;;22.50;67.40;;;;;;4983605;28;20019;-59
2022/09/05 07:56:01;;;;;;;5.80;1.58;;;22.50;66.30;;;;;;5001653;28;20030;-59
2022/09/05 07:58:38;;;;;;;5.63;1.52;;;22.50;66.30;;;;;;4999016;28;20034;-59
2022/09/05 08:01:04;;;;;;;4.78;1.48;;;22.50;66.30;;;;;;4998031;28;20026;-59
2022/09/05 08:03:30;;;;;;;4.63;1.38;;;22.50;66.30;;;;;;5000418;28;20770;-59
2022/09/05 08:05:59;;;;;;;5.38;1.85;;;22.50;66.30;;;;;;4999969;28;20494;-59
2022/09/05 08:08:44;;;;;;;5.00;1.50;;;22.50;66.20;;;;;;4984470;28;20565;-59
2022/09/05 08:11:10;;;;;;;;;;;22.50;66.30;;;;;;4998383;28;20102;-59
2022/09/05 08:13:38;;;;;;;3.25;1.40;;;22.50;66.30;;;;;;4979661;28;19909;-60
2022/09/05 08:16:04;;;;;;;4.60;1.60;;;22.50;66.20;;;;;;4984876;28;20049;-59
2022/09/05 08:18:39;;;;;;;5.43;1.40;;;22.50;66.20;;;;;;4999145;28;20023;-59
2022/09/05 08:21:33;;;;;;;4.78;1.63;;;22.50;66.30;;;;;;4983528;28;20074;-59
2022/09/05 08:24:31;;;;;;;3.53;1.55;;;22.50;66.20;;;;;;5002163;28;20446;-59
2022/09/05 08:27:18;;;;;;;4.55;1.50;;;22.60;66.20;;;;;;4979379;28;20042;-59
2022/09/05 08:30:11;;;;;;;4.55;1.80;;;22.60;66.20;;;;;;4977822;28;20025;-59
2022/09/05 08:32:43;;;;;;;5.72;1.80;;;22.50;66.10;;;;;;4969232;28;21749;-59
2022/09/05 08:35:43;;;;;;;4.20;1.67;;;22.50;65.90;;;;;;4999475;28;20037;-59
2022/09/05 08:38:09;;;;;;;3.03;1.40;;;22.60;66.10;;;;;;4981144;28;20058;-59
2022/09/05 08:40:46;;;;;;;3.83;1.38;;;22.60;66.20;;;;;;4995129;28;20112;-59
2022/09/05 08:43:27;;;;;;;4.95;1.58;;;22.60;66.10;;;;;;4996613;28;20023;-59
2022/09/05 08:46:04;;;;;;;5.25;1.60;;;22.60;66.20;;;;;;5001747;28;20045;-59
2022/09/05 08:48:39;;;;;;;4.53;1.60;;;22.60;66.30;;;;;;4973467;28;20047;-59
2022/09/05 08:51:23;;;;;;;;;;;22.70;66.40;;;;;;4983161;28;20034;-59
2022/09/05 08:54:14;;;;;;;5.85;1.60;;;22.70;66.40;;;;;;4982348;28;19909;-59
2022/09/05 08:57:11;;;;;;;5.32;1.52;;;22.70;66.40;;;;;;4982964;28;20027;-59
2022/09/05 09:00:00;;;;;;;4.97;1.35;;;22.70;66.40;;;;;;5002496;28;20042;-59
2022/09/05 09:02:33;;;;;;;4.20;1.58;;;22.70;66.40;;;;;;4990834;28;20396;-59
2022/09/05 09:05:11;;;;;;;7.60;1.92;;;22.80;66.40;;;;;;4984757;28;20033;-59
2022/09/05 09:07:44;;;;;;;4.80;1.42;;;22.80;66.20;;;;;;5012336;28;20038;-59
2022/09/05 09:10:22;;;;;;;6.55;1.52;;;22.80;66.30;;;;;;5003720;28;20034;-60
2022/09/05 09:13:03;;;;;;;6.13;1.48;;;22.80;66.20;;;;;;4989781;28;20030;-59
2022/09/05 09:15:39;;;;;;;5.70;1.48;;;22.90;66.30;;;;;;4992991;28;20037;-61
2022/09/05 09:18:12;;;;;;;9.70;1.50;;;22.80;66.30;;;;;;4986474;28;20038;-60
2022/09/05 09:20:58;;;;;;;7.30;1.42;;;22.80;66.40;;;;;;5003870;28;20539;-59
2022/09/05 09:23:33;;;;;;;6.90;1.40;;;22.80;66.40;;;;;;4992489;28;20057;-60
2022/09/05 09:26:14;;;;;;;5.38;1.83;;;22.90;66.40;;;;;;5006248;28;20034;-60
2022/09/05 09:28:41;;;;;;;6.43;1.55;;;22.90;66.40;;;;;;4988386;28;20121;-60
2022/09/05 09:31:29;;;;;;;3.65;1.35;;;22.90;66.30;;;;;;4989065;28;20062;-60
2022/09/05 09:34:24;;;;;;;4.68;1.50;;;22.90;66.20;;;;;;4992369;28;20044;-59
2022/09/05 09:36:58;;;;;;;3.78;1.35;;;22.90;66.20;;;;;;4985239;28;20034;-59
2022/09/05 09:39:24;;;;;;;4.70;1.70;;;22.90;66.30;;;;;;4984441;28;20031;-59
2022/09/05 09:42:11;;;;;;;4.72;1.50;;;22.90;66.30;;;;;;4984680;28;20038;-59
2022/09/05 09:45:14;;;;;;;4.60;1.40;;;22.90;66.30;;;;;;4984277;28;20026;-59
2022/09/05 09:48:05;;;;;;;4.43;1.50;;;22.90;66.30;;;;;;5004008;28;20053;-58
2022/09/05 09:50:54;;;;;;;4.65;1.40;;;22.90;66.40;;;;;;4987914;28;20031;-61
2022/09/05 09:53:26;;;;;;;5.85;1.70;;;22.90;66.60;;;;;;5001900;28;20046;-60
2022/09/05 09:56:08;;;;;;;3.95;1.60;;;22.90;66.60;;;;;;4984435;28;20109;-60
2022/09/05 09:59:03;;;;;;;7.68;1.75;;;22.90;66.60;;;;;;4985064;28;20065;-60
2022/09/05 10:01:52;;;;;;;6.03;1.60;;;22.90;66.60;;;;;;4984190;28;20045;-60
2022/09/05 10:04:42;;;;;;;4.50;1.70;;;22.90;66.60;;;;;;4985552;28;20073;-60
2022/09/05 10:07:20;;;;;;;4.70;1.67;;;22.90;66.60;;;;;;5002091;28;20050;-59
2022/09/05 10:10:16;;;;;;;5.60;1.42;;;22.90;66.70;;;;;;4981056;28;20403;-59
2022/09/05 10:13:08;;;;;;;5.40;1.48;;;22.90;66.70;;;;;;4983258;28;20030;-60
2022/09/05 10:16:18;;;;;;;4.35;1.45;;;23.00;66.80;;;;;;4999259;28;20479;-59
2022/09/05 10:18:50;;;;;;;3.97;1.30;;;23.00;66.80;;;;;;5002581;28;20049;-60
2022/09/05 10:21:33;;;;;;;4.38;1.58;;;23.00;66.70;;;;;;5004094;28;20061;-60
2022/09/05 10:24:50;;;;;;;5.63;1.40;;;23.00;66.80;;;;;;5002211;28;20045;-60
2022/09/05 10:27:41;;;;;;;3.00;1.40;;;23.00;66.80;;;;;;4947670;28;20102;-60
2022/09/05 10:30:09;;;;;;;3.70;1.50;;;23.00;66.80;;;;;;4948600;29;20035;-60
2022/09/05 10:33:13;;;;;;;4.43;1.45;;;23.00;66.80;;;;;;4948068;29;20542;-60
2022/09/05 10:35:43;;;;;;;3.25;1.50;;;23.10;66.80;;;;;;4947074;29;20443;-60
2022/09/05 10:38:13;;;;;;;2.90;1.35;;;23.10;66.90;;;;;;4945552;29;20032;-59
2022/09/05 10:40:42;;;;;;;4.20;1.40;;;23.10;66.90;;;;;;4948545;29;20082;-60
2022/09/05 10:43:27;;;;;;;3.65;1.38;;;23.10;67.10;;;;;;4947153;29;20420;-59
2022/09/05 10:45:55;;;;;;;4.47;1.60;;;23.10;67.00;;;;;;4946093;29;20031;-59
2022/09/05 10:48:26;;;;;;;5.97;1.27;;;23.10;67.10;;;;;;4948152;28;20055;-59
2022/09/05 10:51:02;;;;;;;4.88;1.40;;;23.10;67.00;;;;;;4948307;29;20035;-60
2022/09/05 10:53:39;;;;;;;4.68;1.73;;;23.20;67.00;;;;;;4946399;29;20548;-60
2022/09/05 10:56:17;;;;;;;4.95;1.60;;;23.20;67.10;;;;;;4944713;28;20050;-59
2022/09/05 10:59:03;;;;;;;3.50;1.33;;;23.20;66.80;;;;;;4929915;29;20039;-59
2022/09/05 11:01:45;;;;;;;3.75;1.38;;;23.30;66.70;;;;;;4942774;28;20023;-59
2022/09/05 11:04:33;;;;;;;6.05;1.60;;;23.30;66.50;;;;;;4983447;28;20590;-59
2022/09/05 11:07:14;;;;;;;3.30;1.40;;;23.30;66.40;;;;;;4992141;28;20066;-59
2022/09/05 11:09:52;;;;;;;3.38;1.50;;;23.40;66.40;;;;;;5004547;28;20030;-59
2022/09/05 11:12:39;;;;;;;3.55;1.40;;;23.40;66.40;;;;;;4983203;28;20026;-59
2022/09/05 11:15:08;;;;;;;4.28;1.33;;;23.50;66.40;;;;;;4982751;28;20613;-59
2022/09/05 11:17:43;;;;;;;6.57;1.80;;;23.50;66.30;;;;;;4981751;28;20391;-63
2022/09/05 11:20:30;;;;;;;4.00;1.50;;;23.50;66.10;;;;;;4983574;28;20027;-63
2022/09/05 11:23:03;;;;;;;4.07;1.55;;;23.60;66.20;;;;;;4985566;28;20407;-64
2022/09/05 11:25:29;;;;;;;5.03;1.73;;;23.60;66.10;;;;;;4999672;28;20038;-65
2022/09/05 11:27:56;;;;;;;3.88;1.35;;;23.60;66.10;;;;;;4983727;28;20111;-65
2022/09/05 11:30:23;;;;;;;3.58;1.48;;;23.70;66.10;;;;;;4980091;28;20026;-65
2022/09/05 11:33:26;;;;;;;4.55;1.40;;;23.70;66.00;;;;;;4981747;28;20029;-64
2022/09/05 11:35:58;;;;;;;4.55;1.42;;;23.70;66.00;;;;;;4984102;28;20598;-64
2022/09/05 11:42:01;;;;;;;4.32;1.48;;;23.80;65.80;;;;;;4982107;28;20096;-66
2022/09/05 11:45:03;;;;;;;5.43;1.45;;;23.80;65.80;;;;;;4987056;28;20061;-64
2022/09/05 11:51:17;;;;;;;4.80;1.50;;;23.90;65.70;;;;;;4977501;28;20091;-66
2022/09/05 11:54:26;;;;;;;4.57;1.40;;;24.00;65.70;;;;;;4981359;28;20038;-65
2022/09/05 11:57:12;;;;;;;4.65;1.42;;;24.00;65.50;;;;;;4982887;28;20114;-64
2022/09/05 12:00:00;;;;;;;3.00;1.15;;;24.00;65.50;;;;;;4998157;28;20038;-65
2022/09/05 12:02:31;;;;;;;3.67;1.50;;;24.00;65.40;;;;;;4982068;28;20034;-63
2022/09/05 12:05:24;;;;;;;3.55;1.30;;;24.10;65.40;;;;;;4987416;28;20110;-64
2022/09/05 12:08:24;;;;;;;2.92;1.20;;;24.10;65.30;;;;;;4994301;28;20560;-63
2022/09/05 12:11:19;;;;;;;4.90;1.63;;;24.10;65.20;;;;;;4978336;28;20113;-64
2022/09/05 12:13:48;;;;;;;3.47;1.30;;;24.20;65.20;;;;;;4993230;28;20787;-64
2022/09/05 12:16:38;;;;;;;2.85;1.20;;;24.20;65.10;;;;;;4985381;28;20454;-63
2022/09/05 12:19:04;;;;;;;3.30;1.30;;;24.20;65.00;;;;;;5005895;28;20052;-66
2022/09/05 12:21:34;;;;;;;3.83;1.38;;;24.30;65.00;;;;;;4984121;28;20050;-63
2022/09/05 12:24:03;;;;;;;3.85;1.60;;;24.30;65.00;;;;;;4979020;28;20035;-64
2022/09/05 12:26:53;;;;;;;2.90;1.30;;;24.40;64.90;;;;;;4983469;28;20169;-63
2022/09/05 12:29:21;;;;;;;3.70;1.50;;;24.40;64.80;;;;;;4984571;28;20031;-64
2022/09/05 12:31:58;;;;;;;3.22;1.40;;;24.40;64.70;;;;;;5000501;28;20036;-64
2022/09/05 12:34:49;;;;;;;4.15;1.30;;;24.40;64.70;;;;;;4984491;28;20042;-66
2022/09/05 12:37:30;;;;;;;3.03;1.40;;;24.50;64.60;;;;;;4966154;28;20446;-63
2022/09/05 12:40:16;;;;;;;2.85;1.33;;;24.60;64.50;;;;;;4979126;28;20126;-61
2022/09/05 12:43:02;;;;;;;4.13;1.48;;;24.50;64.40;;;;;;4997648;28;20022;-62
2022/09/05 12:45:31;;;;;;;2.95;1.35;;;24.60;64.40;;;;;;4984138;28;20034;-61
2022/09/05 12:48:13;;;;;;;3.03;1.40;;;24.60;64.30;;;;;;4983213;28;20034;-62
2022/09/05 12:51:01;;;;;;;4.43;1.40;;;24.60;64.30;;;;;;4983431;28;20030;-62
2022/09/05 12:53:39;;;;;;;3.10;1.33;;;24.70;64.30;;;;;;4997121;28;20106;-62
2022/09/05 12:56:29;;;;;;;3.40;1.45;;;24.60;64.20;;;;;;4995597;28;20030;-62
2022/09/05 12:58:55;;;;;;;4.20;1.50;;;24.60;64.10;;;;;;4975572;28;20073;-62
2022/09/05 13:01:32;;;;;;;4.40;1.38;;;24.70;64.00;;;;;;4998571;28;20037;-62
2022/09/05 13:04:00;;;;;;;3.72;1.30;;;24.70;64.10;;;;;;4994441;28;20026;-61
2022/09/05 13:06:41;;;;;;;4.53;1.35;;;24.80;64.10;;;;;;4992826;28;21864;-61
2022/09/05 13:09:10;;;;;;;3.90;1.30;;;24.80;64.10;;;;;;4979357;28;20030;-61
2022/09/05 13:12:06;;;;;;;3.15;1.35;;;24.90;63.80;;;;;;4978014;28;20030;-62
2022/09/05 13:14:58;;;;;;;6.07;1.73;;;24.90;64.00;;;;;;4994002;28;20043;-61
2022/09/05 13:17:37;;;;;;;5.78;1.45;;;24.90;63.70;;;;;;4980311;28;20030;-61
2022/09/05 13:20:16;;;;;;;4.43;1.50;;;25.00;63.70;;;;;;4996137;28;20057;-61
2022/09/05 13:22:42;;;;;;;2.30;1.27;;;25.00;63.60;;;;;;4999095;28;20510;-61
2022/09/05 13:25:21;;;;;;;3.03;1.20;;;25.00;63.50;;;;;;4981221;28;20077;-60
2022/09/05 13:27:55;;;;;;;3.70;1.23;;;25.00;63.50;;;;;;4965690;28;20060;-60
2022/09/05 13:30:23;;;;;;;1.88;1.27;;;25.00;63.50;;;;;;4997787;28;20045;-60
2022/09/05 13:32:49;;;;;;;2.90;1.48;;;25.10;63.50;;;;;;4984232;28;20066;-60
2022/09/05 13:35:21;;;;;;;5.57;1.40;;;25.10;63.40;;;;;;5000450;28;20031;-61
2022/09/05 13:38:05;;;;;;;3.60;1.40;;;25.10;63.50;;;;;;4983282;28;20104;-61
2022/09/05 13:40:36;;;;;;;5.93;1.45;;;25.10;63.30;;;;;;4997795;28;20050;-60
2022/09/05 13:43:09;;;;;;;2.72;1.13;;;25.10;64.40;;;;;;4983993;28;21700;-60
2022/09/05 13:45:55;;;;;;;2.95;1.35;;;25.10;63.30;;;;;;4999247;28;20026;-61
2022/09/05 13:48:48;;;;;;;4.55;1.45;;;25.10;63.30;;;;;;4986964;28;20046;-61
2022/09/05 13:51:42;;;;;;;3.40;1.40;;;25.10;63.30;;;;;;4983394;28;20030;-61
2022/09/05 13:54:37;;;;;;;2.40;1.30;;;25.10;63.30;;;;;;4985426;28;20057;-61
2022/09/05 13:57:21;;;;;;;;;;;25.10;63.30;;;;;;4985269;28;20046;-61
2022/09/05 14:00:17;;;;;;;2.95;1.50;;;25.10;63.40;;;;;;4990603;28;19909;-61
2022/09/05 14:03:07;;;;;;;3.85;1.58;;;25.00;63.40;;;;;;4990354;28;20639;-61